createdAt,value
2023-05-09T00:01:58.465Z,33.44
2023-05-09T00:04:26.608Z,33.59
2023-05-09T00:06:54.251Z,33.53
2023-05-09T00:09:21.803Z,33.55
2023-05-09T00:11:50.304Z,33.57
2023-05-09T00:14:18.332Z,33.55
2023-05-09T00:16:45.844Z,33.59
2023-05-09T00:19:13.366Z,33.61
2023-05-09T00:21:41.003Z,33.63
2023-05-09T00:24:08.614Z,33.74
2023-05-09T00:26:36.334Z,33.90
2023-05-09T00:29:04.368Z,33.95
2023-05-09T00:31:32.481Z,33.95
2023-05-09T00:34:00.732Z,34.02
2023-05-09T00:36:28.307Z,34.41
2023-05-09T00:38:55.841Z,34.65
2023-05-09T00:41:23.527Z,34.66
2023-05-09T00:43:51.141Z,34.68
2023-05-09T00:46:18.774Z,35.01
2023-05-09T00:48:46.814Z,35.31
2023-05-09T00:51:15.477Z,35.46
2023-05-09T00:53:43.061Z,35.62
2023-05-09T00:56:12.094Z,35.73
2023-05-09T00:58:39.654Z,35.95
2023-05-09T01:01:08.399Z,36.10
2023-05-09T01:03:36.744Z,36.05
2023-05-09T01:06:24.474Z,35.99
2023-05-09T01:09:15.209Z,36.09
2023-05-09T01:12:07.951Z,36.28
2023-05-09T01:14:51.677Z,36.46
2023-05-09T01:17:46.611Z,36.61
2023-05-09T01:20:39.110Z,36.72
2023-05-09T01:23:22.958Z,36.79
2023-05-09T01:26:08.426Z,36.67
2023-05-09T01:28:56.819Z,36.74
2023-05-09T01:31:26.856Z,36.89
2023-05-09T01:34:02.985Z,36.96
2023-05-09T01:36:33.835Z,37.21
2023-05-09T01:39:04.206Z,37.30
2023-05-09T01:41:36.279Z,37.49
2023-05-09T01:44:08.289Z,37.42
2023-05-09T01:46:37.434Z,37.56
2023-05-09T01:49:08.993Z,37.70
2023-05-09T01:51:38.610Z,37.70
2023-05-09T01:54:06.913Z,37.77
2023-05-09T01:56:36.940Z,37.86
2023-05-09T01:59:06.548Z,37.90
2023-05-09T02:01:37.142Z,38.02
2023-05-09T02:04:05.686Z,38.04
2023-05-09T02:06:34.663Z,37.99
2023-05-09T02:09:02.979Z,38.07
2023-05-09T02:11:30.697Z,38.10
2023-05-09T02:13:58.359Z,37.92
2023-05-09T02:16:27.772Z,37.98
2023-05-09T02:18:55.574Z,37.93
2023-05-09T02:21:23.256Z,37.98
2023-05-09T02:23:51.037Z,38.04
2023-05-09T02:26:20.295Z,38.11
2023-05-09T02:28:49.753Z,38.03
2023-05-09T02:31:20.435Z,37.90
2023-05-09T02:33:49.569Z,37.93
2023-05-09T02:36:18.468Z,38.09
2023-05-09T02:38:48.374Z,38.14
2023-05-09T02:41:17.087Z,38.36
2023-05-09T02:43:44.791Z,38.53
2023-05-09T02:46:12.956Z,38.67
2023-05-09T02:48:40.674Z,38.71
2023-05-09T02:51:08.295Z,38.81
2023-05-09T02:53:35.884Z,38.66
2023-05-09T02:56:04.109Z,38.61
2023-05-09T02:58:31.744Z,38.61
2023-05-09T03:00:59.410Z,38.63
2023-05-09T03:03:27.070Z,38.68
2023-05-09T03:05:54.850Z,38.73
2023-05-09T03:08:22.301Z,38.69
2023-05-09T03:10:49.890Z,38.58
2023-05-09T03:13:17.430Z,38.65
2023-05-09T03:15:45.080Z,38.71
2023-05-09T03:18:13.028Z,38.90
2023-05-09T03:20:40.744Z,39.04
2023-05-09T03:23:08.425Z,39.05
2023-05-09T03:25:36.100Z,39.08
2023-05-09T03:28:05.004Z,39.27
2023-05-09T03:30:32.600Z,39.37
2023-05-09T03:33:00.358Z,39.50
2023-05-09T03:35:27.940Z,39.65
2023-05-09T03:37:55.604Z,39.75
2023-05-09T03:40:23.207Z,39.87
2023-05-09T03:42:50.786Z,39.96
2023-05-09T03:45:18.492Z,40.20
2023-05-09T03:47:46.451Z,40.26
2023-05-09T03:50:14.000Z,40.14
2023-05-09T03:52:41.571Z,39.93
2023-05-09T03:55:09.596Z,39.98
2023-05-09T03:57:37.674Z,40.05
2023-05-09T04:00:06.806Z,39.83
2023-05-09T04:02:34.588Z,39.92
2023-05-09T04:05:02.310Z,39.96
2023-05-09T04:07:31.496Z,39.99
2023-05-09T04:09:59.817Z,40.20
2023-05-09T04:12:27.471Z,40.49
2023-05-09T04:14:55.059Z,40.76
2023-05-09T04:17:22.760Z,40.74
2023-05-09T04:19:50.559Z,40.75
2023-05-09T04:22:18.447Z,40.84
2023-05-09T04:24:46.281Z,40.92
2023-05-09T04:27:14.044Z,41.02
2023-05-09T04:29:41.914Z,41.08
2023-05-09T04:32:09.460Z,41.08
2023-05-09T04:34:37.458Z,41.09
2023-05-09T04:37:06.005Z,41.18
2023-05-09T04:39:33.596Z,41.22
2023-05-09T04:42:01.116Z,41.31
2023-05-09T04:44:28.889Z,41.28
2023-05-09T04:46:58.237Z,41.25
2023-05-09T04:49:25.916Z,41.38
2023-05-09T04:51:53.478Z,41.38
2023-05-09T04:54:21.421Z,41.35
2023-05-09T04:56:50.714Z,41.18
2023-05-09T04:59:19.071Z,41.30
2023-05-09T05:01:46.815Z,41.26
2023-05-09T05:04:14.532Z,41.23
2023-05-09T05:06:42.175Z,41.22
2023-05-09T05:09:10.857Z,41.35
2023-05-09T05:11:38.301Z,41.18
2023-05-09T05:14:05.898Z,41.17
2023-05-09T05:16:33.721Z,41.22
2023-05-09T05:19:01.440Z,41.22
2023-05-09T05:21:29.721Z,41.21
2023-05-09T05:23:57.243Z,41.17
2023-05-09T05:26:25.727Z,41.13
2023-05-09T05:28:55.635Z,41.09
2023-05-09T05:31:23.422Z,41.12
2023-05-09T05:33:50.903Z,40.97
2023-05-09T05:36:20.920Z,40.99
2023-05-09T05:38:50.555Z,41.00
2023-05-09T05:41:21.006Z,40.97
2023-05-09T05:43:48.492Z,40.84
2023-05-09T05:46:22.832Z,40.72
2023-05-09T05:49:28.474Z,40.74
2023-05-09T05:51:56.109Z,40.74
2023-05-09T05:54:25.556Z,40.53
2023-05-09T05:56:53.072Z,40.73
2023-05-09T05:59:22.970Z,40.53
2023-05-09T06:01:54.275Z,40.61
2023-05-09T06:04:22.207Z,40.41
2023-05-09T06:06:53.538Z,40.33
2023-05-09T06:09:21.147Z,40.06
2023-05-09T06:11:49.143Z,39.80
2023-05-09T06:14:20.500Z,39.65
2023-05-09T06:16:48.352Z,39.51
2023-05-09T06:19:18.935Z,39.37
2023-05-09T06:21:46.622Z,38.78
2023-05-09T06:24:23.851Z,38.77
2023-05-09T06:27:03.087Z,38.25
2023-05-09T06:29:40.128Z,38.02
2023-05-09T06:32:07.732Z,37.71
2023-05-09T06:34:38.072Z,37.30
2023-05-09T06:37:06.181Z,36.93
2023-05-09T06:39:39.842Z,36.59
2023-05-09T06:42:10.900Z,36.47
2023-05-09T06:44:38.651Z,36.16
2023-05-09T06:47:06.730Z,35.88
2023-05-09T06:49:37.501Z,35.61
2023-05-09T06:52:05.165Z,35.57
2023-05-09T06:54:33.088Z,35.12
2023-05-09T06:57:04.571Z,34.99
2023-05-09T06:59:39.759Z,34.65
2023-05-09T07:02:07.423Z,34.41
2023-05-09T07:04:35.958Z,34.38
2023-05-09T07:07:16.740Z,34.05
2023-05-09T07:09:50.696Z,33.71
2023-05-09T07:12:41.477Z,33.56
2023-05-09T07:15:10.287Z,33.29
2023-05-09T07:17:38.097Z,33.29
2023-05-09T07:20:07.163Z,33.24
2023-05-09T07:22:39.176Z,33.28
2023-05-09T07:25:13.743Z,32.97
2023-05-09T07:27:41.415Z,32.65
2023-05-09T07:30:09.318Z,32.74
2023-05-09T07:32:37.057Z,32.50
2023-05-09T07:35:05.793Z,32.55
2023-05-09T07:37:33.476Z,32.30
2023-05-09T07:40:01.571Z,32.29
2023-05-09T07:42:35.444Z,32.15
2023-05-09T07:45:07.549Z,31.79
2023-05-09T07:47:35.701Z,31.96
2023-05-09T07:50:03.766Z,31.66
2023-05-09T07:52:42.406Z,31.69
2023-05-09T07:55:46.649Z,31.52
2023-05-09T07:58:15.902Z,31.15
2023-05-09T08:00:44.724Z,30.97
2023-05-09T08:03:12.702Z,31.05
2023-05-09T08:05:40.862Z,31.14
2023-05-09T08:08:10.125Z,31.11
2023-05-09T08:10:37.862Z,31.01
2023-05-09T08:13:06.021Z,30.96
2023-05-09T08:15:44.381Z,30.96
2023-05-09T08:18:12.568Z,30.79
2023-05-09T08:20:40.900Z,30.75
2023-05-09T08:23:08.899Z,30.70
2023-05-09T08:25:36.677Z,30.71
2023-05-09T08:28:06.526Z,30.87
2023-05-09T08:30:34.461Z,30.53
2023-05-09T08:33:02.487Z,30.15
2023-05-09T08:35:33.318Z,30.35
2023-05-09T08:38:01.496Z,30.29
2023-05-09T08:40:29.347Z,30.08
2023-05-09T08:42:57.843Z,30.15
2023-05-09T08:45:30.622Z,30.32
2023-05-09T08:48:03.437Z,30.79
2023-05-09T08:50:35.432Z,31.71
2023-05-09T08:53:08.920Z,31.01
2023-05-09T08:55:38.061Z,30.44
2023-05-09T08:58:28.198Z,29.84
2023-05-09T09:01:00.015Z,29.49
2023-05-09T09:03:27.552Z,29.52
2023-05-09T09:05:56.604Z,29.39
2023-05-09T09:08:26.448Z,29.64
2023-05-09T09:10:54.287Z,29.74
2023-05-09T09:13:22.670Z,29.33
2023-05-09T09:15:54.036Z,29.40
2023-05-09T09:18:23.978Z,29.12
2023-05-09T09:21:06.398Z,28.83
2023-05-09T09:23:34.645Z,29.17
2023-05-09T09:26:06.522Z,29.17
2023-05-09T09:28:34.192Z,28.95
2023-05-09T09:31:02.042Z,29.12
2023-05-09T09:33:29.780Z,28.81
2023-05-09T09:35:57.799Z,28.75
2023-05-09T09:38:25.529Z,28.84
2023-05-09T09:40:54.884Z,28.59
2023-05-09T09:43:34.044Z,28.04
2023-05-09T09:46:07.343Z,27.81
2023-05-09T09:48:36.187Z,28.76
2023-05-09T09:51:11.585Z,28.89
2023-05-09T09:53:41.381Z,28.62
2023-05-09T09:56:09.706Z,28.36
2023-05-09T09:58:37.192Z,28.15
2023-05-09T10:01:09.777Z,28.57
2023-05-09T10:03:41.921Z,28.59
2023-05-09T10:06:11.749Z,28.19
2023-05-09T10:08:40.198Z,28.20
2023-05-09T10:11:08.930Z,27.87
2023-05-09T10:13:38.406Z,27.80
2023-05-09T10:16:08.849Z,27.58
2023-05-09T10:18:37.744Z,27.83
2023-05-09T10:21:09.619Z,27.56
2023-05-09T10:23:40.923Z,27.21
2023-05-09T10:26:32.486Z,26.91
2023-05-09T10:29:05.655Z,26.72
2023-05-09T10:31:39.195Z,26.45
2023-05-09T10:34:10.590Z,26.72
2023-05-09T10:36:38.866Z,26.30
2023-05-09T10:39:09.909Z,25.45
2023-05-09T10:41:39.657Z,25.75
2023-05-09T10:44:07.345Z,25.90
2023-05-09T10:46:36.179Z,25.95
2023-05-09T10:49:04.386Z,25.81
2023-05-09T10:51:33.228Z,25.83
2023-05-09T10:54:01.137Z,25.78
2023-05-09T10:56:36.596Z,25.26
2023-05-09T10:59:05.159Z,25.26
2023-05-09T11:01:37.764Z,25.49
2023-05-09T11:04:12.911Z,25.47
2023-05-09T11:06:51.976Z,25.41
2023-05-09T11:09:28.354Z,25.10
2023-05-09T11:12:05.102Z,25.22
2023-05-09T11:14:38.000Z,24.97
2023-05-09T11:17:09.397Z,24.50
2023-05-09T11:19:39.950Z,24.56
2023-05-09T11:22:16.568Z,24.54
2023-05-09T11:24:47.324Z,24.10
2023-05-09T11:27:26.772Z,24.08
2023-05-09T11:30:00.613Z,23.82
2023-05-09T11:32:35.046Z,24.02
2023-05-09T11:35:12.559Z,23.80
2023-05-09T11:37:58.083Z,23.71
2023-05-09T11:40:27.500Z,23.43
2023-05-09T11:42:58.875Z,23.16
2023-05-09T11:45:32.200Z,22.93
2023-05-09T11:48:01.599Z,23.15
2023-05-09T11:50:29.364Z,22.89
2023-05-09T11:52:57.197Z,22.78
2023-05-09T11:55:29.810Z,22.49
2023-05-09T11:57:59.350Z,22.38
2023-05-09T12:00:27.305Z,22.06
2023-05-09T12:02:55.036Z,22.15
2023-05-09T12:05:23.357Z,22.22
2023-05-09T12:07:52.210Z,22.30
2023-05-09T12:10:23.312Z,21.92
2023-05-09T12:12:55.477Z,21.29
2023-05-09T12:15:23.802Z,21.16
2023-05-09T12:18:08.897Z,20.88
2023-05-09T12:20:53.298Z,20.46
2023-05-09T12:23:20.948Z,20.66
2023-05-09T12:25:56.468Z,20.48
2023-05-09T12:28:27.941Z,20.43
2023-05-09T12:30:56.173Z,20.22
2023-05-09T12:33:25.301Z,20.22
2023-05-09T12:36:11.383Z,20.29
2023-05-09T12:38:39.330Z,19.97
2023-05-09T12:41:34.899Z,20.03
2023-05-09T12:44:06.051Z,19.83
2023-05-09T12:46:35.689Z,19.61
2023-05-09T12:49:03.889Z,19.46
2023-05-09T12:51:31.427Z,18.99
2023-05-09T12:54:04.769Z,18.77
2023-05-09T12:56:37.182Z,18.90
2023-05-09T12:59:21.027Z,18.75
2023-05-09T13:01:54.935Z,18.62
2023-05-09T13:04:23.458Z,18.67
2023-05-09T13:06:55.399Z,18.44
2023-05-09T13:09:25.310Z,18.21
2023-05-09T13:11:53.572Z,18.02
2023-05-09T13:14:23.069Z,17.80
2023-05-09T13:16:50.756Z,17.67
2023-05-09T13:19:18.317Z,17.49
2023-05-09T13:21:46.053Z,17.46
2023-05-09T13:24:13.606Z,17.12
2023-05-09T13:26:41.244Z,17.08
2023-05-09T13:29:08.756Z,16.94
2023-05-09T13:31:36.267Z,16.86
2023-05-09T13:34:05.057Z,16.80
2023-05-09T13:36:32.975Z,16.66
2023-05-09T13:39:00.692Z,16.54
2023-05-09T13:41:30.749Z,16.29
2023-05-09T13:43:58.648Z,16.11
2023-05-09T13:46:27.779Z,16.37
2023-05-09T13:48:55.461Z,16.00
2023-05-09T13:51:23.549Z,15.74
2023-05-09T13:53:51.212Z,15.67
2023-05-09T13:56:19.487Z,15.52
2023-05-09T13:58:47.021Z,15.53
2023-05-09T14:01:15.407Z,15.65
2023-05-09T14:03:43.066Z,15.16
2023-05-09T14:06:15.266Z,14.98
2023-05-09T14:08:44.134Z,14.89
2023-05-09T14:11:11.667Z,14.56
2023-05-09T14:13:39.103Z,14.55
2023-05-09T14:16:07.095Z,14.44
2023-05-09T14:18:35.534Z,14.47
2023-05-09T14:21:03.120Z,14.20
2023-05-09T14:23:31.450Z,14.08
2023-05-09T14:26:00.130Z,14.09
2023-05-09T14:28:28.155Z,14.16
2023-05-09T14:30:57.397Z,14.13
2023-05-09T14:33:26.333Z,13.72
2023-05-09T14:35:56.437Z,13.56
2023-05-09T14:38:24.174Z,13.36
2023-05-09T14:40:51.815Z,13.47
2023-05-09T14:43:19.286Z,13.34
2023-05-09T14:45:47.308Z,13.35
2023-05-09T14:48:16.228Z,13.22
2023-05-09T14:50:43.982Z,12.98
2023-05-09T14:53:11.660Z,12.85
2023-05-09T14:55:39.144Z,12.63
2023-05-09T14:58:07.681Z,12.58
2023-05-09T15:00:35.166Z,12.42
2023-05-09T15:03:03.213Z,12.23
2023-05-09T15:05:31.664Z,12.37
2023-05-09T15:07:59.125Z,12.21
2023-05-09T15:10:27.805Z,11.95
2023-05-09T15:12:56.148Z,11.84
2023-05-09T15:15:24.210Z,11.93
2023-05-09T15:17:52.920Z,11.81
2023-05-09T15:20:21.578Z,11.78
2023-05-09T15:22:50.603Z,11.78
2023-05-09T15:25:19.506Z,11.57
2023-05-09T15:27:50.265Z,11.55
2023-05-09T15:30:18.008Z,11.46
2023-05-09T15:32:46.877Z,11.23
2023-05-09T15:35:15.702Z,11.20
2023-05-09T15:37:43.281Z,10.99
2023-05-09T15:40:11.553Z,10.99
2023-05-09T15:42:40.097Z,10.68
2023-05-09T15:45:08.717Z,10.76
2023-05-09T15:47:36.301Z,10.79
2023-05-09T15:50:05.476Z,10.70
2023-05-09T15:52:33.293Z,10.48
2023-05-09T15:55:00.839Z,10.37
2023-05-09T15:57:36.784Z,10.53
2023-05-09T16:00:05.388Z,10.35
2023-05-09T16:02:33.077Z,10.31
2023-05-09T16:05:00.674Z,10.30
2023-05-09T16:07:28.258Z,10.26
2023-05-09T16:09:55.996Z,10.05
2023-05-09T16:12:24.286Z,9.95
2023-05-09T16:14:51.833Z,9.88
2023-05-09T16:17:19.404Z,9.90
2023-05-09T16:19:46.921Z,9.97
2023-05-09T16:22:14.617Z,9.78
2023-05-09T16:24:42.217Z,9.68
2023-05-09T16:27:09.819Z,9.56
2023-05-09T16:29:37.302Z,9.69
2023-05-09T16:32:05.137Z,9.48
2023-05-09T16:34:32.836Z,9.67
2023-05-09T16:37:00.373Z,9.54
2023-05-09T16:39:29.532Z,9.40
2023-05-09T16:41:58.149Z,9.51
2023-05-09T16:44:26.514Z,9.48
2023-05-09T16:46:54.151Z,9.53
2023-05-09T16:49:22.866Z,9.59
2023-05-09T16:51:51.115Z,9.47
2023-05-09T16:54:18.583Z,9.42
2023-05-09T16:56:46.475Z,9.46
2023-05-09T16:59:13.963Z,9.61
2023-05-09T17:01:42.411Z,9.59
2023-05-09T17:04:10.075Z,9.67
2023-05-09T17:06:37.825Z,9.62
2023-05-09T17:09:05.436Z,9.75
2023-05-09T17:11:33.946Z,9.56
2023-05-09T17:14:04.456Z,9.51
2023-05-09T17:16:32.259Z,9.84
2023-05-09T17:19:00.250Z,9.86
2023-05-09T17:21:28.352Z,10.00
2023-05-09T17:23:56.214Z,10.25
2023-05-09T17:26:24.402Z,10.26
2023-05-09T17:28:52.037Z,10.42
2023-05-09T17:31:19.861Z,10.73
2023-05-09T17:33:47.356Z,10.93
2023-05-09T17:36:14.955Z,11.04
2023-05-09T17:38:42.537Z,11.40
2023-05-09T17:41:10.140Z,11.48
2023-05-09T17:43:40.226Z,11.74
2023-05-09T17:46:09.260Z,11.90
2023-05-09T17:48:39.078Z,12.11
2023-05-09T17:51:07.277Z,12.35
2023-05-09T17:53:34.870Z,12.53
2023-05-09T17:56:02.346Z,12.74
2023-05-09T17:58:30.100Z,12.81
2023-05-09T18:00:59.746Z,13.04
2023-05-09T18:03:29.135Z,13.19
2023-05-09T18:05:57.113Z,13.36
2023-05-09T18:08:25.049Z,13.56
2023-05-09T18:10:56.121Z,13.71
2023-05-09T18:13:23.908Z,13.91
2023-05-09T18:15:54.010Z,14.12
2023-05-09T18:18:22.903Z,14.26
2023-05-09T18:20:50.896Z,14.52
2023-05-09T18:23:18.379Z,14.59
2023-05-09T18:25:45.923Z,14.86
2023-05-09T18:28:13.376Z,14.96
2023-05-09T18:30:41.353Z,15.11
2023-05-09T18:33:08.967Z,15.20
2023-05-09T18:35:36.788Z,15.28
2023-05-09T18:38:04.376Z,15.36
2023-05-09T18:40:32.560Z,15.48
2023-05-09T18:43:00.045Z,15.73
2023-05-09T18:45:28.199Z,15.76
2023-05-09T18:47:55.782Z,15.91
2023-05-09T18:50:23.480Z,15.94
2023-05-09T18:52:52.063Z,16.24
2023-05-09T18:55:20.959Z,16.26
2023-05-09T18:57:49.074Z,16.39
2023-05-09T19:00:17.699Z,16.53
2023-05-09T19:02:45.587Z,16.67
2023-05-09T19:05:13.132Z,16.81
2023-05-09T19:07:40.619Z,16.89
2023-05-09T19:10:08.415Z,17.23
2023-05-09T19:12:36.105Z,17.17
2023-05-09T19:15:05.038Z,17.61
2023-05-09T19:17:33.430Z,17.78
2023-05-09T19:20:02.282Z,17.86
2023-05-09T19:22:29.770Z,17.92
2023-05-09T19:24:58.401Z,18.04
2023-05-09T19:27:25.942Z,18.02
2023-05-09T19:29:54.040Z,18.16
2023-05-09T19:32:22.426Z,18.30
2023-05-09T19:34:49.890Z,18.34
2023-05-09T19:37:17.464Z,18.64
2023-05-09T19:39:45.164Z,18.54
2023-05-09T19:42:12.722Z,18.84
2023-05-09T19:44:40.330Z,18.86
2023-05-09T19:47:09.129Z,19.07
2023-05-09T19:49:36.731Z,19.08
2023-05-09T19:52:04.428Z,19.29
2023-05-09T19:54:31.949Z,19.31
2023-05-09T19:56:59.402Z,19.47
2023-05-09T19:59:26.977Z,19.65
2023-05-09T20:01:54.542Z,19.64
2023-05-09T20:04:22.758Z,19.77
2023-05-09T20:06:50.746Z,19.89
2023-05-09T20:09:20.882Z,19.88
2023-05-09T20:11:48.528Z,20.19
2023-05-09T20:14:16.315Z,20.19
2023-05-09T20:16:44.236Z,20.18
2023-05-09T20:19:14.030Z,20.38
2023-05-09T20:21:42.644Z,20.45
2023-05-09T20:24:11.937Z,20.50
2023-05-09T20:26:39.511Z,20.76
2023-05-09T20:29:07.609Z,20.69
2023-05-09T20:31:35.605Z,20.86
2023-05-09T20:34:03.354Z,20.95
2023-05-09T20:36:31.519Z,20.99
2023-05-09T20:38:59.047Z,21.19
2023-05-09T20:41:27.100Z,21.24
2023-05-09T20:43:54.812Z,21.36
2023-05-09T20:46:22.349Z,21.54
2023-05-09T20:48:49.993Z,21.55
2023-05-09T20:51:17.505Z,21.61
2023-05-09T20:53:45.086Z,21.67
2023-05-09T20:56:12.679Z,21.68
2023-05-09T20:58:40.788Z,21.73
2023-05-09T21:01:08.408Z,21.78
2023-05-09T21:03:35.925Z,21.94
2023-05-09T21:06:03.608Z,22.00
2023-05-09T21:08:31.245Z,22.20
2023-05-09T21:10:58.899Z,22.24
2023-05-09T21:13:26.525Z,22.17
2023-05-09T21:15:54.159Z,22.30
2023-05-09T21:18:21.754Z,22.33
2023-05-09T21:20:49.509Z,22.43
2023-05-09T21:23:18.851Z,22.56
2023-05-09T21:25:46.380Z,22.71
2023-05-09T21:28:15.463Z,22.64
2023-05-09T21:30:43.039Z,22.86
2023-05-09T21:33:11.763Z,22.88
2023-05-09T21:35:39.557Z,23.11
2023-05-09T21:38:07.152Z,23.15
2023-05-09T21:40:34.897Z,23.15
2023-05-09T21:43:03.416Z,23.23
2023-05-09T21:45:30.888Z,23.31
2023-05-09T21:47:58.682Z,23.41
2023-05-09T21:50:26.287Z,23.48
2023-05-09T21:52:56.406Z,23.61
2023-05-09T21:55:24.130Z,23.59
2023-05-09T21:57:51.784Z,23.63
2023-05-09T22:00:21.341Z,23.93
2023-05-09T22:02:49.000Z,23.91
2023-05-09T22:05:16.818Z,23.95
2023-05-09T22:07:44.346Z,24.12
2023-05-09T22:10:12.093Z,24.19
2023-05-09T22:12:39.706Z,24.26
2023-05-09T22:15:07.720Z,24.25
2023-05-09T22:17:35.962Z,24.30
2023-05-09T22:20:04.067Z,24.39
2023-05-09T22:22:33.113Z,24.46
2023-05-09T22:25:00.724Z,24.60
2023-05-09T22:27:28.330Z,24.66
2023-05-09T22:29:56.104Z,24.64
2023-05-09T22:32:24.272Z,24.85
2023-05-09T22:34:53.969Z,24.83
2023-05-09T22:37:21.524Z,24.92
2023-05-09T22:39:49.047Z,25.02
2023-05-09T22:42:16.628Z,25.05
2023-05-09T22:44:44.973Z,25.12
2023-05-09T22:47:12.764Z,25.19
2023-05-09T22:49:40.381Z,25.32
2023-05-09T22:52:07.840Z,25.25
2023-05-09T22:54:35.331Z,25.34
2023-05-09T22:57:02.929Z,25.40
2023-05-09T22:59:30.558Z,25.46
2023-05-09T23:01:59.507Z,25.46
2023-05-09T23:04:27.664Z,25.70
2023-05-09T23:06:55.649Z,25.71
2023-05-09T23:09:23.280Z,25.74
2023-05-09T23:11:51.579Z,25.78
2023-05-09T23:14:19.184Z,25.95
2023-05-09T23:16:47.200Z,25.91
2023-05-09T23:19:14.771Z,25.87
2023-05-09T23:21:42.318Z,25.95
2023-05-09T23:24:09.831Z,26.02
2023-05-09T23:26:38.304Z,25.98
2023-05-09T23:29:05.862Z,26.18
2023-05-09T23:31:33.875Z,26.25
2023-05-09T23:34:01.521Z,26.27
2023-05-09T23:36:29.162Z,26.40
2023-05-09T23:38:56.726Z,26.42
2023-05-09T23:41:24.330Z,26.48
2023-05-09T23:43:51.839Z,26.47
2023-05-09T23:46:19.416Z,26.56
2023-05-09T23:48:46.970Z,26.62
2023-05-09T23:51:14.534Z,26.66
2023-05-09T23:53:42.121Z,26.63
2023-05-09T23:56:10.664Z,26.73
2023-05-09T23:58:38.341Z,26.68
